sensor_id;sensor_type;location;lat;lon;timestamp;pressure;altitude;pressure_sealevel;temperature;humidity
59315;BME280;46521;50.160;20.802;2022-10-04T00:11:32;99642.94;;;9.46;81.48
59315;BME280;46521;50.160;20.802;2022-10-04T00:42:13;99628.59;;;9.41;80.96
59315;BME280;46521;50.160;20.802;2022-10-04T00:52:30;99625.95;;;9.41;81.38
59315;BME280;46521;50.160;20.802;2022-10-04T01:02:37;99634.69;;;9.41;81.29
59315;BME280;46521;50.160;20.802;2022-10-04T01:12:55;99624.13;;;9.41;81.63
59315;BME280;46521;50.160;20.802;2022-10-04T01:22:57;99610.59;;;9.36;81.50
59315;BME280;46521;50.160;20.802;2022-10-04T01:32:59;99610.39;;;9.29;81.70
59315;BME280;46521;50.160;20.802;2022-10-04T01:43:05;99619.64;;;9.25;81.99
59315;BME280;46521;50.160;20.802;2022-10-04T01:53:17;99612.70;;;9.24;81.73
59315;BME280;46521;50.160;20.802;2022-10-04T02:03:31;99615.17;;;9.26;81.64
59315;BME280;46521;50.160;20.802;2022-10-04T02:13:36;99617.16;;;9.24;81.90
59315;BME280;46521;50.160;20.802;2022-10-04T02:23:40;99618.63;;;9.26;81.81
59315;BME280;46521;50.160;20.802;2022-10-04T02:33:45;99611.88;;;9.24;82.19
59315;BME280;46521;50.160;20.802;2022-10-04T03:04:12;99620.75;;;9.14;82.40
59315;BME280;46521;50.160;20.802;2022-10-04T03:14:18;99622.73;;;9.12;82.15
59315;BME280;46521;50.160;20.802;2022-10-04T03:24:28;99633.94;;;9.14;82.24
59315;BME280;46521;50.160;20.802;2022-10-04T03:34:36;99643.69;;;9.14;82.11
59315;BME280;46521;50.160;20.802;2022-10-04T03:44:39;99632.97;;;9.15;82.25
59315;BME280;46521;50.160;20.802;2022-10-04T04:05:11;99611.31;;;9.04;82.53
59315;BME280;46521;50.160;20.802;2022-10-04T04:15:41;99628.90;;;8.95;82.46
59315;BME280;46521;50.160;20.802;2022-10-04T04:25:47;99650.31;;;8.92;82.87
59315;BME280;46521;50.160;20.802;2022-10-04T04:35:53;99663.66;;;8.90;83.10
59315;BME280;46521;50.160;20.802;2022-10-04T04:45:55;99674.20;;;8.90;83.28
59315;BME280;46521;50.160;20.802;2022-10-04T04:56:06;99680.33;;;8.91;82.68
59315;BME280;46521;50.160;20.802;2022-10-04T05:06:26;99683.13;;;8.89;83.14
59315;BME280;46521;50.160;20.802;2022-10-04T05:16:40;99696.78;;;8.84;82.64
59315;BME280;46521;50.160;20.802;2022-10-04T05:26:43;99706.05;;;8.89;82.90
59315;BME280;46521;50.160;20.802;2022-10-04T05:47:26;99731.84;;;9.03;83.12
59315;BME280;46521;50.160;20.802;2022-10-04T05:57:41;99743.41;;;9.10;83.15
59315;BME280;46521;50.160;20.802;2022-10-04T06:18:50;99771.06;;;9.32;82.95
59315;BME280;46521;50.160;20.802;2022-10-04T06:39:40;99798.07;;;9.52;82.72
59315;BME280;46521;50.160;20.802;2022-10-04T06:50:38;99806.72;;;9.63;82.75
59315;BME280;46521;50.160;20.802;2022-10-04T07:00:18;99822.24;;;9.66;82.51
59315;BME280;46521;50.160;20.802;2022-10-04T07:10:50;99833.81;;;9.73;82.50
59315;BME280;46521;50.160;20.802;2022-10-04T07:21:01;99849.11;;;9.96;82.84
59315;BME280;46521;50.160;20.802;2022-10-04T07:31:20;99867.11;;;10.35;83.05
59315;BME280;46521;50.160;20.802;2022-10-04T07:41:34;99870.11;;;10.48;82.53
59315;BME280;46521;50.160;20.802;2022-10-04T08:12:01;99895.30;;;10.85;81.48
59315;BME280;46521;50.160;20.802;2022-10-04T08:22:29;99914.97;;;10.91;81.23
59315;BME280;46521;50.160;20.802;2022-10-04T08:33:17;99927.05;;;10.93;80.38
59315;BME280;46521;50.160;20.802;2022-10-04T09:14:59;99956.33;;;10.92;79.97
59315;BME280;46521;50.160;20.802;2022-10-04T09:55:32;99979.37;;;11.65;78.62
59315;BME280;46521;50.160;20.802;2022-10-04T10:06:02;99992.11;;;11.53;78.03
59315;BME280;46521;50.160;20.802;2022-10-04T10:27:01;100019.42;;;11.38;78.37
59315;BME280;46521;50.160;20.802;2022-10-04T10:37:28;100009.67;;;11.54;78.93
59315;BME280;46521;50.160;20.802;2022-10-04T12:32:18;100078.41;;;11.97;76.34
59315;BME280;46521;50.160;20.802;2022-10-04T12:53:14;100097.56;;;12.49;75.50
59315;BME280;46521;50.160;20.802;2022-10-04T13:03:27;100103.45;;;12.75;75.61
59315;BME280;46521;50.160;20.802;2022-10-04T15:08:10;100180.48;;;12.51;70.91
59315;BME280;46521;50.160;20.802;2022-10-04T15:18:29;100190.09;;;12.27;71.53
59315;BME280;46521;50.160;20.802;2022-10-04T15:28:50;100210.49;;;12.10;71.10
59315;BME280;46521;50.160;20.802;2022-10-04T15:39:02;100206.27;;;11.91;71.18
59315;BME280;46521;50.160;20.802;2022-10-04T15:49:23;100219.64;;;11.65;71.49
59315;BME280;46521;50.160;20.802;2022-10-04T16:09:47;100245.63;;;11.27;71.47
59315;BME280;46521;50.160;20.802;2022-10-04T16:20:11;100255.95;;;11.04;71.73
59315;BME280;46521;50.160;20.802;2022-10-04T16:51:02;100276.48;;;10.12;72.57
59315;BME280;46521;50.160;20.802;2022-10-04T17:52:55;100312.75;;;9.26;73.34
59315;BME280;46521;50.160;20.802;2022-10-04T18:03:23;100321.69;;;9.15;73.05
59315;BME280;46521;50.160;20.802;2022-10-04T18:23:37;100345.88;;;8.91;73.83
59315;BME280;46521;50.160;20.802;2022-10-04T18:33:49;100373.94;;;8.82;73.51
59315;BME280;46521;50.160;20.802;2022-10-04T18:44:04;100378.36;;;8.72;73.67
59315;BME280;46521;50.160;20.802;2022-10-04T19:05:00;100385.78;;;8.38;73.95
59315;BME280;46521;50.160;20.802;2022-10-04T19:25:36;100391.16;;;8.17;74.29
59315;BME280;46521;50.160;20.802;2022-10-04T19:56:44;100411.62;;;8.03;74.54
59315;BME280;46521;50.160;20.802;2022-10-04T20:06:48;100420.05;;;7.97;74.63
59315;BME280;46521;50.160;20.802;2022-10-04T20:26:53;100446.65;;;7.94;74.30
59315;BME280;46521;50.160;20.802;2022-10-04T20:37:03;100459.13;;;7.92;74.74
59315;BME280;46521;50.160;20.802;2022-10-04T20:47:19;100470.19;;;7.86;75.23
59315;BME280;46521;50.160;20.802;2022-10-04T20:57:24;100468.88;;;8.01;74.72
59315;BME280;46521;50.160;20.802;2022-10-04T21:07:26;100474.45;;;8.08;75.59
59315;BME280;46521;50.160;20.802;2022-10-04T21:27:39;100498.81;;;8.00;75.66
59315;BME280;46521;50.160;20.802;2022-10-04T21:37:43;100494.58;;;7.88;75.48
59315;BME280;46521;50.160;20.802;2022-10-04T21:47:44;100508.91;;;7.74;75.65
59315;BME280;46521;50.160;20.802;2022-10-04T21:57:45;100518.94;;;7.59;75.67
59315;BME280;46521;50.160;20.802;2022-10-04T22:07:47;100505.61;;;7.39;76.09
59315;BME280;46521;50.160;20.802;2022-10-04T22:17:48;100516.14;;;7.39;75.89
59315;BME280;46521;50.160;20.802;2022-10-04T22:27:51;100526.79;;;7.38;75.55
59315;BME280;46521;50.160;20.802;2022-10-04T22:37:53;100524.41;;;7.35;75.96
59315;BME280;46521;50.160;20.802;2022-10-04T22:47:56;100531.60;;;7.33;75.79
59315;BME280;46521;50.160;20.802;2022-10-04T22:58:00;100518.82;;;7.28;75.81
59315;BME280;46521;50.160;20.802;2022-10-04T23:08:02;100498.27;;;7.22;75.80
59315;BME280;46521;50.160;20.802;2022-10-04T23:18:12;100497.83;;;7.17;75.63
59315;BME280;46521;50.160;20.802;2022-10-04T23:28:16;100494.73;;;7.12;75.86
59315;BME280;46521;50.160;20.802;2022-10-04T23:38:19;100515.91;;;7.10;75.40
59315;BME280;46521;50.160;20.802;2022-10-04T23:58:39;100537.78;;;7.11;75.51
